Time;durP1;ratioP1;P1;durP2;ratioP2;P2;SDS_P1;SDS_P2;PMS_P1;PMS_P2;Temp;Humidity;BMP_temperature;BMP_pressure;BME280_temperature;BME280_humidity;BME280_pressure;Samples;Min_cycle;Max_cycle;Signal;HPM_P1;HPM_P2
2024/02/02 00:00:05;;;;;;;12.23;5.87;;;;;;;6.71;100.00;97719.13;5074774;28;20228;-68
2024/02/02 00:02:37;;;;;;;11.83;6.83;;;;;;;6.72;100.00;97731.25;5076157;28;20287;-68
2024/02/02 00:05:04;;;;;;;15.90;7.17;;;;;;;6.67;100.00;97728.19;5075418;28;21097;-68
2024/02/02 00:07:31;;;;;;;13.93;6.57;;;;;;;6.77;100.00;97732.59;5075906;28;20196;-68
2024/02/02 00:09:57;;;;;;;11.57;6.23;;;;;;;6.71;100.00;97729.59;5077821;28;20239;-68
2024/02/02 00:12:24;;;;;;;10.70;5.70;;;;;;;6.70;100.00;97730.56;5079484;28;20198;-68
2024/02/02 00:14:50;;;;;;;12.10;5.77;;;;;;;6.71;100.00;97727.00;5080093;28;20550;-68
2024/02/02 00:17:18;;;;;;;12.00;6.07;;;;;;;6.57;100.00;97727.22;5079606;28;20234;-69
2024/02/02 00:19:46;;;;;;;12.17;5.70;;;;;;;6.68;100.00;97728.06;5078767;28;20220;-68
2024/02/02 00:22:13;;;;;;;13.33;6.27;;;;;;;6.38;100.00;97729.53;5078655;28;20392;-68
2024/02/02 00:24:39;;;;;;;11.87;6.20;;;;;;;6.47;100.00;97728.84;5079199;28;20204;-68
2024/02/02 00:27:06;;;;;;;13.97;6.63;;;;;;;6.56;100.00;97724.72;5080288;28;20296;-68
2024/02/02 00:29:33;;;;;;;11.80;5.87;;;;;;;6.58;100.00;97723.66;5077714;28;20230;-68
2024/02/02 00:31:59;;;;;;;12.87;6.57;;;;;;;6.66;100.00;97724.72;5078975;28;20678;-68
2024/02/02 00:34:26;;;;;;;16.73;6.27;;;;;;;6.71;100.00;97724.38;5079529;28;20210;-68
2024/02/02 00:36:53;;;;;;;13.80;6.27;;;;;;;6.81;100.00;97717.44;5079309;28;20493;-68
2024/02/02 00:39:20;;;;;;;11.33;5.27;;;;;;;6.63;100.00;97718.84;5078218;28;20581;-68
2024/02/02 00:41:46;;;;;;;14.53;6.70;;;;;;;6.69;100.00;97718.41;5079976;28;20237;-68
2024/02/02 00:44:13;;;;;;;15.67;5.97;;;;;;;6.65;100.00;97718.78;5078719;28;20226;-68
2024/02/02 00:46:39;;;;;;;9.33;4.80;;;;;;;6.63;100.00;97724.09;5078439;28;20211;-68
2024/02/02 00:49:06;;;;;;;13.37;6.60;;;;;;;6.60;100.00;97721.72;5078012;28;20223;-68
2024/02/02 00:51:33;;;;;;;8.60;5.20;;;;;;;6.49;100.00;97726.97;5078565;28;20690;-68
2024/02/02 00:54:00;;;;;;;11.90;5.90;;;;;;;6.63;100.00;97729.34;5079045;28;20203;-68
2024/02/02 00:56:27;;;;;;;10.60;5.60;;;;;;;6.45;100.00;97740.38;5078776;28;20195;-68
2024/02/02 00:58:54;;;;;;;13.83;6.13;;;;;;;6.47;100.00;97728.03;5078237;28;20246;-68
2024/02/02 01:01:20;;;;;;;10.50;5.60;;;;;;;6.42;100.00;97728.34;5078485;28;20944;-68
2024/02/02 01:03:47;;;;;;;11.73;5.70;;;;;;;6.37;100.00;97727.88;5077907;28;20208;-67
2024/02/02 01:06:13;;;;;;;10.73;5.20;;;;;;;6.31;100.00;97730.97;5078517;28;20204;-67
2024/02/02 01:08:40;;;;;;;10.53;5.03;;;;;;;6.19;100.00;97734.47;5078027;28;20212;-67
2024/02/02 01:11:07;;;;;;;10.97;5.30;;;;;;;6.13;100.00;97734.09;5078020;28;20204;-67
2024/02/02 01:13:34;;;;;;;10.20;4.53;;;;;;;6.02;100.00;97725.38;5078287;28;20204;-67
2024/02/02 01:16:00;;;;;;;10.27;5.17;;;;;;;5.89;100.00;97719.38;5078944;28;20574;-67
2024/02/02 01:18:27;;;;;;;10.27;5.37;;;;;;;5.92;100.00;97719.16;5076744;28;20210;-67
2024/02/02 01:20:54;;;;;;;16.07;4.90;;;;;;;5.80;100.00;97720.06;5078653;28;20231;-68
2024/02/02 01:23:21;;;;;;;10.27;4.87;;;;;;;5.92;100.00;97716.53;5078648;28;20257;-67
2024/02/02 01:25:47;;;;;;;11.03;4.97;;;;;;;5.92;100.00;97720.00;5078381;28;20692;-68
2024/02/02 01:28:15;;;;;;;8.87;4.47;;;;;;;6.05;100.00;97708.50;5078533;28;20764;-67
2024/02/02 01:30:42;;;;;;;8.20;4.03;;;;;;;5.91;100.00;97704.44;5078600;28;20223;-67
2024/02/02 01:33:09;;;;;;;10.20;4.67;;;;;;;5.86;100.00;97714.41;5077733;28;20200;-67
2024/02/02 01:35:36;;;;;;;10.87;5.33;;;;;;;5.46;100.00;97712.97;5078314;28;20196;-67
2024/02/02 01:38:02;;;;;;;8.70;4.63;;;;;;;5.57;100.00;97723.47;5079158;28;20208;-68
2024/02/02 01:40:29;;;;;;;12.57;5.57;;;;;;;5.71;100.00;97725.94;5077874;28;20242;-67
2024/02/02 01:42:54;;;;;;;8.73;4.93;;;;;;;5.74;100.00;97717.84;5077541;28;20490;-67
2024/02/02 01:45:22;;;;;;;9.50;4.90;;;;;;;5.90;100.00;97714.03;5078503;28;20210;-67
2024/02/02 01:47:49;;;;;;;10.57;4.77;;;;;;;5.75;100.00;97716.91;5077974;28;20230;-67
2024/02/02 01:50:15;;;;;;;9.87;4.97;;;;;;;5.71;100.00;97703.22;5078044;28;20220;-67
2024/02/02 01:52:42;;;;;;;9.70;5.20;;;;;;;5.76;100.00;97713.41;5078636;28;20196;-67
2024/02/02 01:55:10;;;;;;;10.67;5.50;;;;;;;5.78;100.00;97709.72;5077633;28;20968;-67
2024/02/02 01:57:36;;;;;;;10.07;4.90;;;;;;;5.67;100.00;97709.63;5076820;28;20200;-67
2024/02/02 02:00:04;;;;;;;10.40;5.13;;;;;;;5.59;100.00;97692.84;5076790;28;20231;-67
2024/02/02 02:02:32;;;;;;;14.37;5.50;;;;;;;5.72;100.00;97693.63;5077767;28;20223;-67
2024/02/02 02:04:58;;;;;;;9.13;4.77;;;;;;;5.57;100.00;97686.88;5077481;28;20203;-67
2024/02/02 02:07:26;;;;;;;11.60;4.73;;;;;;;5.45;100.00;97688.59;5077703;28;20218;-67
2024/02/02 02:09:53;;;;;;;11.73;5.20;;;;;;;5.39;100.00;97680.38;5076629;28;20331;-67
2024/02/02 02:12:19;;;;;;;10.27;5.40;;;;;;;5.43;100.00;97678.38;5077102;28;20406;-67
2024/02/02 02:14:46;;;;;;;9.50;4.90;;;;;;;5.34;100.00;97669.41;5077112;28;20210;-67
2024/02/02 02:17:12;;;;;;;9.83;4.87;;;;;;;5.37;100.00;97663.94;5076562;28;20218;-67
2024/02/02 02:19:40;;;;;;;9.47;4.60;;;;;;;5.50;100.00;97659.53;5075928;28;20227;-67
2024/02/02 02:22:08;;;;;;;10.60;4.83;;;;;;;5.51;100.00;97661.16;5077053;28;20235;-67
2024/02/02 02:24:35;;;;;;;10.63;5.00;;;;;;;5.30;100.00;97656.69;5077266;28;20204;-67
2024/02/02 02:27:03;;;;;;;10.07;5.00;;;;;;;5.34;100.00;97663.34;5077213;28;20207;-67
2024/02/02 02:29:30;;;;;;;8.50;4.40;;;;;;;5.28;100.00;97669.84;5076191;28;20220;-67
2024/02/02 02:31:57;;;;;;;11.33;4.57;;;;;;;5.29;100.00;97666.28;5076302;28;20203;-67
2024/02/02 02:34:26;;;;;;;11.90;4.97;;;;;;;5.50;100.00;97664.75;5077055;28;20208;-67
2024/02/02 02:36:52;;;;;;;11.20;5.13;;;;;;;5.41;100.00;97664.56;5075768;28;21044;-67
2024/02/02 02:39:20;;;;;;;12.60;4.87;;;;;;;5.62;100.00;97656.81;5076224;28;20509;-67
2024/02/02 02:41:47;;;;;;;12.83;5.13;;;;;;;5.51;100.00;97656.78;5076801;28;20224;-67
2024/02/02 02:44:14;;;;;;;9.57;4.97;;;;;;;5.57;100.00;97650.28;5077046;28;20234;-67
2024/02/02 02:46:40;;;;;;;12.37;5.60;;;;;;;5.57;100.00;97645.88;5076239;28;20294;-67
2024/02/02 02:49:07;;;;;;;10.57;4.93;;;;;;;5.57;100.00;97650.28;5075781;28;20219;-67
2024/02/02 02:51:34;;;;;;;14.70;6.33;;;;;;;5.67;100.00;97646.88;5076421;28;20192;-67
2024/02/02 02:54:00;;;;;;;14.33;5.97;;;;;;;5.56;100.00;97661.66;5077278;28;20206;-67
2024/02/02 02:56:27;;;;;;;12.17;5.23;;;;;;;5.87;100.00;97653.25;5076254;28;20204;-67
2024/02/02 02:58:54;;;;;;;11.33;5.60;;;;;;;5.76;100.00;97653.25;5075598;28;20220;-67
2024/02/02 03:01:20;;;;;;;15.53;6.03;;;;;;;5.71;100.00;97660.56;5075644;28;20230;-67
2024/02/02 03:03:47;;;;;;;14.47;5.63;;;;;;;5.70;100.00;97661.50;5076931;28;20218;-67
2024/02/02 03:06:13;;;;;;;14.17;6.20;;;;;;;5.71;100.00;97656.16;5076617;28;20666;-67
2024/02/02 03:08:40;;;;;;;10.93;5.10;;;;;;;5.74;100.00;97655.09;5075482;28;20339;-67
2024/02/02 03:11:06;;;;;;;11.27;5.63;;;;;;;5.77;100.00;97647.06;5076579;28;20203;-67
2024/02/02 03:13:35;;;;;;;11.07;5.23;;;;;;;5.93;100.00;97653.66;5076280;28;20211;-67
2024/02/02 03:16:01;;;;;;;14.70;6.60;;;;;;;5.75;100.00;97654.16;5076090;28;20376;-67
2024/02/02 03:18:28;;;;;;;14.43;5.37;;;;;;;5.75;100.00;97649.78;5075637;28;20207;-67
2024/02/02 03:20:54;;;;;;;14.40;5.53;;;;;;;5.76;100.00;97661.09;5076231;28;20207;-67
2024/02/02 03:23:21;;;;;;;13.50;5.70;;;;;;;5.74;100.00;97649.84;5075873;28;20223;-67
2024/02/02 03:25:47;;;;;;;11.03;5.60;;;;;;;5.76;100.00;97650.63;5076523;28;20204;-67
2024/02/02 03:28:14;;;;;;;11.83;5.40;;;;;;;5.80;100.00;97652.06;5075626;28;20207;-67
2024/02/02 03:30:41;;;;;;;12.77;5.90;;;;;;;5.93;100.00;97647.56;5075643;28;20224;-67
2024/02/02 03:33:08;;;;;;;13.83;6.10;;;;;;;5.94;100.00;97657.09;5075867;28;20203;-67
2024/02/02 03:35:34;;;;;;;11.87;5.87;;;;;;;6.02;100.00;97655.59;5075141;28;20221;-67
2024/02/02 03:38:01;;;;;;;12.40;5.83;;;;;;;6.00;100.00;97664.50;5075408;28;20666;-67
2024/02/02 03:40:27;;;;;;;11.87;5.50;;;;;;;6.01;100.00;97666.16;5075780;28;20228;-67
2024/02/02 03:42:54;;;;;;;16.60;5.87;;;;;;;5.95;100.00;97656.97;5077309;28;20230;-67
2024/02/02 03:45:20;;;;;;;13.97;4.90;;;;;;;5.93;100.00;97658.91;5080330;28;20312;-67
2024/02/02 03:47:48;;;;;;;13.67;5.93;;;;;;;6.13;100.00;97661.66;5078854;28;20204;-67
2024/02/02 03:50:15;;;;;;;13.70;5.40;;;;;;;5.94;100.00;97657.91;5079247;28;20219;-67
2024/02/02 03:52:41;;;;;;;14.80;5.87;;;;;;;6.00;100.00;97657.47;5080301;28;20199;-67
2024/02/02 03:55:09;;;;;;;13.90;6.00;;;;;;;5.95;100.00;97661.38;5079477;28;20211;-67
2024/02/02 03:57:35;;;;;;;10.53;5.27;;;;;;;5.98;100.00;97664.59;5079367;28;20466;-67
2024/02/02 04:00:04;;;;;;;13.50;5.17;;;;;;;6.02;100.00;97673.06;5079343;28;20224;-67
2024/02/02 04:02:30;;;;;;;11.93;5.40;;;;;;;6.12;100.00;97683.56;5080320;28;20276;-67
2024/02/02 04:04:58;;;;;;;12.00;5.70;;;;;;;6.22;100.00;97686.31;5079237;28;20376;-67
2024/02/02 04:07:25;;;;;;;13.00;6.07;;;;;;;6.08;100.00;97686.50;5080045;28;20203;-67
2024/02/02 04:09:51;;;;;;;10.33;5.53;;;;;;;6.19;100.00;97683.94;5078970;28;20235;-67
2024/02/02 04:12:18;;;;;;;12.53;6.13;;;;;;;6.06;100.00;97676.16;5079173;28;20227;-67
2024/02/02 04:14:45;;;;;;;10.97;5.53;;;;;;;6.04;100.00;97677.22;5080247;28;20207;-67
2024/02/02 04:17:11;;;;;;;8.70;4.77;;;;;;;6.12;100.00;97683.56;5079916;28;20204;-67
2024/02/02 04:19:38;;;;;;;11.13;5.23;;;;;;;6.12;100.00;97690.56;5078157;28;20230;-67
2024/02/02 04:22:06;;;;;;;9.50;4.80;;;;;;;6.28;100.00;97686.69;5079093;28;20239;-67
2024/02/02 04:24:32;;;;;;;11.47;5.37;;;;;;;6.29;100.00;97682.28;5078887;28;20204;-67
2024/02/02 04:26:59;;;;;;;15.40;5.80;;;;;;;6.19;100.00;97684.75;5077314;28;20231;-67
2024/02/02 04:29:25;;;;;;;11.53;5.37;;;;;;;6.27;100.00;97686.78;5077027;28;20475;-67
2024/02/02 04:31:52;;;;;;;12.57;5.97;;;;;;;6.29;100.00;97683.13;5077951;28;20204;-67
2024/02/02 04:34:18;;;;;;;13.33;5.60;;;;;;;6.34;100.00;97685.38;5077745;28;20259;-67
2024/02/02 04:36:45;;;;;;;14.57;5.23;;;;;;;6.34;100.00;97680.13;5077554;28;20199;-67
2024/02/02 04:39:13;;;;;;;11.30;5.13;;;;;;;6.40;100.00;97672.69;5077114;28;20743;-67
2024/02/02 04:41:40;;;;;;;10.47;5.50;;;;;;;6.30;100.00;97682.19;5077784;28;20488;-67
2024/02/02 04:44:06;;;;;;;11.57;5.03;;;;;;;6.12;100.00;97683.56;5079159;28;20208;-67
2024/02/02 04:46:33;;;;;;;11.40;4.77;;;;;;;6.25;100.00;97686.91;5078745;28;20210;-67
2024/02/02 04:48:59;;;;;;;12.90;5.70;;;;;;;6.23;100.00;97688.81;5078051;28;20235;-67
2024/02/02 04:51:26;;;;;;;9.63;4.67;;;;;;;6.23;100.00;97691.41;5078442;28;20204;-67
2024/02/02 04:53:53;;;;;;;10.83;5.07;;;;;;;6.17;100.00;97704.13;5078859;28;20204;-67
2024/02/02 04:56:20;;;;;;;10.13;5.00;;;;;;;6.42;100.00;97698.72;5078263;28;20577;-67
2024/02/02 04:58:51;;;;;;;10.30;4.77;;;;;;;6.33;100.00;97696.81;5077979;28;20211;-68
2024/02/02 05:01:18;;;;;;;10.27;4.83;;;;;;;6.19;100.00;97703.06;5078598;28;20294;-67
2024/02/02 05:03:44;;;;;;;9.43;4.77;;;;;;;6.35;100.00;97708.84;5078848;28;20228;-67
2024/02/02 05:06:11;;;;;;;8.67;4.77;;;;;;;6.21;100.00;97714.28;5078153;28;20214;-67
2024/02/02 05:08:37;;;;;;;9.83;4.27;;;;;;;6.33;100.00;97712.53;5078066;28;20800;-67
2024/02/02 05:11:04;;;;;;;9.03;4.63;;;;;;;6.27;100.00;97708.56;5078579;28;20208;-67
2024/02/02 05:13:32;;;;;;;10.30;5.00;;;;;;;6.47;100.00;97707.91;5077908;28;20204;-67
2024/02/02 05:15:58;;;;;;;25.27;9.93;;;;;;;6.26;100.00;97714.78;5078445;28;20208;-67
2024/02/02 05:18:25;;;;;;;19.33;6.70;;;;;;;6.41;100.00;97708.34;5077986;28;20218;-67
2024/02/02 05:20:51;;;;;;;13.73;5.57;;;;;;;6.24;100.00;97710.59;5077482;28;20236;-67
2024/02/02 05:23:18;;;;;;;29.03;10.30;;;;;;;6.22;100.00;97713.34;5077788;28;20231;-67
2024/02/02 05:25:45;;;;;;;26.13;10.27;;;;;;;6.28;100.00;97717.28;5078951;28;20234;-69
2024/02/02 05:28:11;;;;;;;30.20;11.77;;;;;;;6.32;100.00;97718.69;5077769;28;20650;-67
2024/02/02 05:30:39;;;;;;;38.73;14.80;;;;;;;6.37;100.00;97713.97;5077668;28;20226;-67
2024/02/02 05:33:05;;;;;;;38.17;14.27;;;;;;;6.25;100.00;97720.94;5078231;28;20206;-67
2024/02/02 05:35:32;;;;;;;54.33;17.63;;;;;;;6.32;100.00;97718.69;5078415;28;20195;-67
2024/02/02 05:37:59;;;;;;;15.70;6.20;;;;;;;6.41;100.00;97720.63;5077097;28;20692;-67
2024/02/02 05:40:26;;;;;;;26.90;8.60;;;;;;;6.32;100.00;97724.75;5077982;28;20315;-67
2024/02/02 05:42:52;;;;;;;37.03;12.63;;;;;;;6.28;100.00;97728.56;5078322;28;20224;-67
2024/02/02 05:45:19;;;;;;;15.43;6.83;;;;;;;6.29;100.00;97729.41;5077661;28;20880;-67
2024/02/02 05:47:47;;;;;;;16.97;6.07;;;;;;;6.40;100.00;97732.91;5076691;28;21197;-67
2024/02/02 05:50:14;;;;;;;24.43;6.70;;;;;;;6.28;100.00;97733.78;5077136;28;20226;-67
2024/02/02 05:52:40;;;;;;;9.60;4.27;;;;;;;6.36;100.00;97734.03;5077571;28;20196;-67
2024/02/02 05:55:07;;;;;;;8.50;4.13;;;;;;;6.24;100.00;97748.06;5077485;28;20200;-67
2024/02/02 05:57:34;;;;;;;20.73;5.03;;;;;;;6.12;100.00;97753.38;5077601;28;20583;-67
2024/02/02 06:00:00;;;;;;;9.40;4.10;;;;;;;6.18;100.00;97753.75;5077015;28;20246;-67
2024/02/02 06:02:27;;;;;;;9.77;4.70;;;;;;;6.32;100.00;97737.84;5077363;28;20224;-67
2024/02/02 06:04:55;;;;;;;8.70;4.43;;;;;;;6.38;100.00;97747.06;5077687;28;20421;-67
2024/02/02 06:07:21;;;;;;;7.87;3.70;;;;;;;6.27;100.00;97755.69;5077662;28;21032;-67
2024/02/02 06:09:48;;;;;;;6.90;3.50;;;;;;;6.31;100.00;97751.06;5076416;28;20237;-67
2024/02/02 06:12:14;;;;;;;7.80;3.77;;;;;;;6.10;100.00;97757.91;5077531;28;20200;-67
2024/02/02 06:14:41;;;;;;;8.20;3.90;;;;;;;6.30;100.00;97747.63;5077326;28;20208;-67
2024/02/02 06:17:09;;;;;;;8.53;4.27;;;;;;;6.29;100.00;97747.75;5076785;28;20196;-67
2024/02/02 06:19:35;;;;;;;12.33;4.43;;;;;;;6.36;100.00;97744.53;5075913;28;20224;-67
2024/02/02 06:22:03;;;;;;;7.57;3.73;;;;;;;6.44;100.00;97750.03;5077247;28;20200;-67
2024/02/02 06:24:30;;;;;;;9.83;4.20;;;;;;;6.37;100.00;97748.81;5077049;28;20640;-67
2024/02/02 06:26:56;;;;;;;7.77;3.77;;;;;;;6.41;100.00;97741.56;5077632;28;20199;-67
2024/02/02 06:29:23;;;;;;;8.17;4.17;;;;;;;6.34;100.00;97745.59;5076323;28;20677;-67
2024/02/02 06:31:49;;;;;;;7.47;3.40;;;;;;;6.32;100.00;97753.56;5077030;28;20206;-67
2024/02/02 06:34:16;;;;;;;8.37;4.17;;;;;;;6.22;100.00;97755.22;5076547;28;20214;-67
2024/02/02 06:36:42;;;;;;;7.33;2.90;;;;;;;6.31;100.00;97751.06;5077132;28;20204;-67
2024/02/02 06:39:10;;;;;;;7.63;3.93;;;;;;;6.39;100.00;97751.31;5076364;28;20226;-67
2024/02/02 06:41:36;;;;;;;7.03;3.47;;;;;;;6.30;100.00;97754.63;5076361;28;20964;-67
2024/02/02 06:44:03;;;;;;;6.97;3.53;;;;;;;6.29;100.00;97756.41;5076643;28;20219;-67
2024/02/02 06:46:30;;;;;;;9.30;4.20;;;;;;;6.16;100.00;97762.66;5077173;28;20200;-67
2024/02/02 06:48:56;;;;;;;8.87;4.20;;;;;;;6.28;100.00;97759.16;5075629;28;20215;-67
2024/02/02 06:51:23;;;;;;;7.03;3.13;;;;;;;6.34;100.00;97754.28;5076229;28;20693;-67
2024/02/02 06:53:51;;;;;;;16.13;3.77;;;;;;;6.38;100.00;97744.44;5076944;28;20206;-67
2024/02/02 06:56:35;;;;;;;8.77;4.10;;;;;;;6.66;100.00;97739.59;5076870;28;20200;-67
2024/02/02 06:59:02;;;;;;;9.57;4.03;;;;;;;6.30;100.00;97742.38;5075903;28;20220;-67
2024/02/02 07:01:28;;;;;;;9.50;3.80;;;;;;;6.17;100.00;97749.47;5077025;28;20196;-67
2024/02/02 07:03:55;;;;;;;9.17;4.47;;;;;;;6.36;100.00;97746.31;5076471;28;20224;-67
2024/02/02 07:06:22;;;;;;;9.57;3.83;;;;;;;6.33;100.00;97760.47;5076652;28;20210;-67
2024/02/02 07:08:49;;;;;;;8.23;3.83;;;;;;;6.35;100.00;97769.06;5076180;28;20674;-68
2024/02/02 07:11:39;;;;;;;13.07;5.30;;;;;;;6.52;100.00;97768.63;5076447;28;20204;-68
2024/02/02 07:14:10;;;;;;;10.13;4.33;;;;;;;6.60;100.00;97787.19;5076852;28;20226;-67
2024/02/02 07:16:37;;;;;;;9.20;4.80;;;;;;;6.54;100.00;97795.50;5076394;28;20199;-67
2024/02/02 07:19:04;;;;;;;10.07;4.70;;;;;;;6.36;100.00;97798.69;5075664;28;20220;-68
2024/02/02 07:21:32;;;;;;;7.43;3.97;;;;;;;6.51;100.00;97797.53;5076651;28;20200;-67
2024/02/02 07:23:59;;;;;;;12.43;5.03;;;;;;;6.61;100.00;97798.53;5076921;28;20714;-68
2024/02/02 07:26:28;;;;;;;9.23;4.57;;;;;;;6.58;100.00;97803.97;5076594;28;20661;-67
2024/02/02 07:28:55;;;;;;;9.70;4.50;;;;;;;6.52;100.00;97810.53;5076040;28;20215;-68
2024/02/02 07:31:35;;;;;;;9.20;4.43;;;;;;;6.82;100.00;97809.06;5076530;28;20206;-68
2024/02/02 07:34:06;;;;;;;10.00;4.37;;;;;;;6.68;100.00;97809.25;5076555;28;20199;-67
2024/02/02 07:36:34;;;;;;;11.67;4.70;;;;;;;6.78;100.00;97809.38;5076482;28;20196;-67
2024/02/02 07:39:02;;;;;;;9.87;4.50;;;;;;;6.70;100.00;97799.47;5075676;28;20223;-68
2024/02/02 07:41:29;;;;;;;7.13;4.10;;;;;;;6.81;100.00;97804.75;5076113;28;20203;-68
2024/02/02 07:43:58;;;;;;;9.47;4.43;;;;;;;6.65;100.00;97819.13;5076447;28;20216;-67
2024/02/02 07:46:26;;;;;;;9.33;4.53;;;;;;;6.53;100.00;97825.28;5076339;28;20214;-67
2024/02/02 07:48:54;;;;;;;9.83;4.07;;;;;;;6.56;100.00;97827.66;5075651;28;20595;-67
2024/02/02 07:51:22;;;;;;;8.47;4.10;;;;;;;6.47;100.00;97830.97;5076418;28;20301;-68
2024/02/02 07:53:49;;;;;;;9.10;3.83;;;;;;;6.60;100.00;97825.66;5076049;28;20198;-67
2024/02/02 07:56:17;;;;;;;11.07;5.13;;;;;;;6.55;100.00;97815.50;5076201;28;20227;-67
2024/02/02 07:58:44;;;;;;;12.03;5.00;;;;;;;6.49;100.00;97812.53;5075846;28;20207;-68
2024/02/02 08:01:11;;;;;;;11.33;4.57;;;;;;;6.58;100.00;97803.97;5076310;28;20873;-68
2024/02/02 08:03:39;;;;;;;10.60;4.73;;;;;;;6.75;100.00;97796.53;5075968;28;20228;-68
2024/02/02 08:06:06;;;;;;;9.20;4.43;;;;;;;6.48;100.00;97803.00;5075992;28;20226;-67
2024/02/02 08:08:35;;;;;;;7.77;3.57;;;;;;;6.61;100.00;97807.22;5075539;28;20210;-67
2024/02/02 08:11:02;;;;;;;8.93;4.40;;;;;;;6.54;100.00;97810.41;5076170;28;20241;-67
2024/02/02 08:13:30;;;;;;;8.13;4.30;;;;;;;6.69;100.00;97791.75;5076074;28;20670;-67
2024/02/02 08:15:57;;;;;;;8.67;3.60;;;;;;;6.60;100.00;97789.81;5075840;28;20196;-67
2024/02/02 08:18:23;;;;;;;6.87;3.50;;;;;;;6.60;100.00;97776.72;5075780;28;20206;-67
2024/02/02 08:20:51;;;;;;;7.17;3.93;;;;;;;6.71;100.00;97784.63;5075757;28;20713;-67
2024/02/02 08:23:18;;;;;;;7.43;3.03;;;;;;;6.72;100.00;97779.25;5075683;28;20231;-67
2024/02/02 08:25:44;;;;;;;8.37;4.33;;;;;;;6.69;100.00;97770.78;5075817;28;20212;-67
2024/02/02 08:28:11;;;;;;;8.37;4.40;;;;;;;6.71;100.00;97774.97;5075465;28;20204;-67
2024/02/02 08:30:37;;;;;;;7.67;3.90;;;;;;;6.73;100.00;97777.47;5077140;28;20316;-67
2024/02/02 08:33:04;;;;;;;8.20;3.77;;;;;;;6.75;100.00;97775.56;5080308;28;20560;-67
2024/02/02 08:35:30;;;;;;;7.70;3.87;;;;;;;6.87;100.00;97769.38;5080490;28;20200;-67
2024/02/02 08:38:01;;;;;;;6.07;3.43;;;;;;;6.86;100.00;97762.47;5078472;28;20630;-67
2024/02/02 08:40:36;;;;;;;8.00;3.27;;;;;;;6.91;100.00;97770.81;5079026;28;20226;-67
2024/02/02 08:43:03;;;;;;;5.87;3.00;;;;;;;6.81;100.00;97769.84;5079185;28;20205;-67
2024/02/02 08:46:10;;;;;;;6.73;3.70;;;;;;;7.04;100.00;97776.78;5079464;28;20208;-67
2024/02/02 08:48:39;;;;;;;8.90;3.87;;;;;;;6.78;100.00;97764.84;5078756;28;20200;-67
2024/02/02 08:51:46;;;;;;;7.27;3.57;;;;;;;7.02;100.00;97781.31;5079354;28;20215;-67
2024/02/02 08:54:33;;;;;;;7.57;3.43;;;;;;;6.91;100.00;97776.06;5078790;28;20276;-67
2024/02/02 08:57:40;;;;;;;12.00;3.60;;;;;;;7.05;100.00;97783.69;5079260;28;20215;-69
2024/02/02 09:00:16;;;;;;;7.57;3.40;;;;;;;7.00;100.00;97775.34;5078321;28;20223;-67
2024/02/02 09:03:20;;;;;;;6.73;2.87;;;;;;;7.19;100.00;97786.09;5078891;28;20208;-67
2024/02/02 09:05:51;;;;;;;8.27;3.97;;;;;;;6.94;100.00;97791.56;5078604;28;20203;-67
2024/02/02 09:08:41;;;;;;;6.77;3.10;;;;;;;7.15;100.00;97779.41;5078575;28;20265;-67
2024/02/02 09:11:19;;;;;;;9.60;4.30;;;;;;;7.07;100.00;97773.94;5063341;28;20693;-67
2024/02/02 09:13:47;;;;;;;7.20;3.50;;;;;;;6.97;100.00;97770.34;5079366;28;20226;-67
2024/02/02 09:16:15;;;;;;;7.13;3.63;;;;;;;7.17;100.00;97772.28;5078721;28;20227;-67
2024/02/02 09:18:44;;;;;;;8.90;3.80;;;;;;;7.06;100.00;97780.94;5077784;28;20207;-67
2024/02/02 09:21:14;;;;;;;8.23;4.07;;;;;;;7.36;100.00;97776.78;5078974;28;20330;-67
2024/02/02 09:23:48;;;;;;;8.53;4.10;;;;;;;7.44;100.00;97782.25;5079371;28;20223;-68
2024/02/02 09:26:17;;;;;;;8.40;3.43;;;;;;;7.27;100.00;97767.03;5078997;28;20206;-67
2024/02/02 09:28:45;;;;;;;7.33;4.00;;;;;;;7.24;100.00;97755.09;5078161;28;21124;-67
2024/02/02 09:31:22;;;;;;;11.03;4.43;;;;;;;7.55;100.00;97750.78;5076825;28;20196;-67
2024/02/02 09:33:51;;;;;;;6.70;3.63;;;;;;;7.42;100.00;97755.34;5076770;28;20199;-67
2024/02/02 09:36:18;;;;;;;8.40;4.20;;;;;;;7.43;100.00;97771.88;5078995;28;20235;-67
2024/02/02 09:38:56;;;;;;;6.77;3.50;;;;;;;7.68;100.00;97780.31;5077694;28;20209;-67
2024/02/02 09:42:00;;;;;;;7.03;3.57;;;;;;;7.79;100.00;97782.94;5077698;28;20199;-67
2024/02/02 09:44:43;;;;;;;7.07;3.87;;;;;;;7.64;100.00;97788.56;5078966;28;20220;-67
2024/02/02 09:47:25;;;;;;;8.60;3.67;;;;;;;7.78;100.00;97773.38;5077805;28;20203;-69
2024/02/02 09:50:04;;;;;;;10.10;4.43;;;;;;;7.78;100.00;97770.75;5077340;28;20220;-67
2024/02/02 09:52:39;;;;;;;8.13;3.80;;;;;;;7.68;100.00;97766.38;5078851;28;20592;-67
2024/02/02 09:55:17;;;;;;;9.53;4.10;;;;;;;7.62;100.00;97777.34;5078272;28;20196;-67
2024/02/02 09:57:50;;;;;;;10.83;4.23;;;;;;;7.56;100.00;97780.44;5077580;28;20200;-67
2024/02/02 10:00:26;;;;;;;12.00;4.93;;;;;;;7.56;100.00;97788.31;5078003;28;20223;-67
2024/02/02 10:03:07;;;;;;;10.10;3.60;;;;;;;7.51;100.00;97788.69;5077688;28;20207;-67
2024/02/02 10:05:47;;;;;;;7.37;3.57;;;;;;;7.58;100.00;97808.22;5077682;28;20304;-67
2024/02/02 10:08:32;;;;;;;10.73;3.93;;;;;;;7.75;100.00;97802.50;5077741;28;20211;-67
2024/02/02 10:11:17;;;;;;;10.63;5.33;;;;;;;7.65;100.00;97806.81;5077550;28;20207;-67
2024/02/02 10:13:58;;;;;;;9.10;3.73;;;;;;;7.72;100.00;97801.91;5077937;28;20221;-67
2024/02/02 10:16:41;;;;;;;10.73;4.33;;;;;;;7.86;100.00;97805.09;5077812;28;20211;-66
2024/02/02 10:19:33;;;;;;;8.43;3.23;;;;;;;7.80;100.00;97789.81;5076854;28;20234;-67
2024/02/02 10:22:13;;;;;;;9.77;4.27;;;;;;;7.70;100.00;97782.81;5075383;28;20203;-67
2024/02/02 10:24:58;;;;;;;10.20;4.67;;;;;;;7.89;100.00;97779.44;5075931;28;20228;-67
2024/02/02 10:27:38;;;;;;;4.60;2.97;;;;;;;7.69;100.00;97768.88;5076099;28;20188;-67
2024/02/02 10:30:14;;;;;;;10.33;4.03;;;;;;;7.79;100.00;97768.97;5075590;28;20220;-67
2024/02/02 10:32:59;;;;;;;11.33;5.30;;;;;;;8.07;100.00;97766.59;5076806;28;20214;-67
2024/02/02 10:35:36;;;;;;;10.17;4.07;;;;;;;7.93;100.00;97766.91;5075744;28;20202;-67
2024/02/02 10:38:16;;;;;;;9.47;4.37;;;;;;;7.93;100.00;97764.28;5075623;28;20199;-69
2024/02/02 10:40:52;;;;;;;9.03;4.30;;;;;;;7.83;100.00;97768.59;5076362;28;20316;-67
2024/02/02 10:43:38;;;;;;;12.43;5.17;;;;;;;8.06;100.00;97775.47;5076924;28;20202;-66
2024/02/02 10:46:22;;;;;;;10.33;4.17;;;;;;;7.98;100.00;97765.56;5076432;28;20200;-67
2024/02/02 10:49:17;;;;;;;10.23;4.23;;;;;;;8.00;100.00;97757.56;5075125;28;20385;-67
2024/02/02 10:51:52;;;;;;;8.10;3.50;;;;;;;7.95;100.00;97757.09;5071689;28;21140;-67
2024/02/02 10:54:30;;;;;;;8.33;4.00;;;;;;;8.22;100.00;97754.88;5076634;28;20205;-67
2024/02/02 10:57:13;;;;;;;14.43;4.97;;;;;;;8.18;100.00;97758.72;5075694;28;20195;-67
2024/02/02 10:59:55;;;;;;;6.60;3.17;;;;;;;7.97;100.00;97755.22;5075606;28;20231;-67
2024/02/02 11:02:26;;;;;;;7.87;3.87;;;;;;;8.06;100.00;97747.41;5075976;28;20204;-67
2024/02/02 11:05:05;;;;;;;10.87;4.40;;;;;;;7.99;100.00;97742.78;5075668;28;20227;-67
2024/02/02 11:07:36;;;;;;;12.07;3.93;;;;;;;8.26;100.00;97735.28;5075630;28;20227;-67
2024/02/02 11:10:06;;;;;;;12.03;4.03;;;;;;;8.31;100.00;97730.50;5074873;28;20231;-67
2024/02/02 11:12:49;;;;;;;10.47;4.70;;;;;;;8.13;100.00;97739.84;5076238;28;20320;-67
2024/02/02 11:15:31;;;;;;;8.17;3.93;;;;;;;8.29;100.00;97727.19;5075671;28;20202;-67
2024/02/02 11:18:12;;;;;;;9.73;4.03;;;;;;;8.30;100.00;97719.16;5075705;28;20214;-67
2024/02/02 11:20:58;;;;;;;11.77;4.17;;;;;;;8.52;100.00;97706.72;5075425;28;20238;-67
2024/02/02 11:23:31;;;;;;;7.30;3.67;;;;;;;8.41;100.00;97715.63;5075795;28;20200;-67
2024/02/02 11:26:07;;;;;;;12.37;4.80;;;;;;;8.62;100.00;97715.50;5077322;28;20216;-67
2024/02/02 11:28:44;;;;;;;10.40;4.80;;;;;;;8.54;100.00;97709.22;5075993;28;20290;-68
2024/02/02 11:31:24;;;;;;;10.10;4.13;;;;;;;8.40;100.00;97695.56;5075779;28;20657;-68
2024/02/02 11:34:05;;;;;;;11.70;5.30;;;;;;;8.52;100.00;97690.13;5077119;28;20545;-67
2024/02/02 11:36:45;;;;;;;11.47;4.90;;;;;;;8.57;100.00;97691.41;5076695;28;20559;-67
2024/02/02 11:39:28;;;;;;;6.90;3.60;;;;;;;8.66;100.00;97688.00;5075851;28;20219;-68
2024/02/02 11:41:56;;;;;;;7.93;3.37;;;;;;;8.38;100.00;97681.75;5076798;28;20210;-68